Latest Weather Observations for Albany Airport

IDW60801

Issued at 10:34 pm WST Saturday 10 December 2016 (issued every 30 minutes, with the page automatically refreshed every 10 minutes)

About weather observations | Map of weather stations | Latest weather observations for WA | Other Formats
Station Details ID: 009999 Name: ALBANY AIRPORT Lat: -34.94 Lon: 117.82 Height: 68.4 m
Data from the previous 72 hours. | See also: Recent months at Albany Airport
Date/Time
WST
Temp
°C
App
Temp
°C
Dew
Point
°C
Rel
Hum
%
Delta-T
°C
Wind Press
QNH
hPa
Press
MSL
hPa
Rain since
9am
mm
Dir  Spd
km/h
Gust
km/h
Spd
kts
Gust
kts
10/10:30pm 16.6 16.2 15.2 91 0.8 ESE 11 13 6 7 1008.4 - 0.0
10/10:16pm 16.6 16.2 15.1 91 0.9 ESE 11 13 6 7 1008.6 - 0.0
10/10:00pm 17.1 17.2 15.4 90 1.0 E 9 11 5 6 1009.1 - 0.0
10/09:30pm 17.8 16.9 15.9 89 1.1 E 15 19 8 10 1009.3 - 0.0
10/09:00pm 18.1 16.8 15.9 87 1.3 E 17 26 9 14 1009.5 1009.5 0.0
10/08:30pm 18.3 16.6 15.8 85 1.5 E 19 26 10 14 1009.4 - 0.0
10/08:00pm 18.7 16.3 15.3 80 2.0 E 22 32 12 17 1009.1 - 0.0
10/07:30pm 19.6 15.3 14.5 72 3.0 E 30 41 16 22 1008.9 - 0.0
10/07:00pm 20.2 15.8 14.2 68 3.5 E 30 43 16 23 1008.9 - 0.0
10/06:34pm 21.2 17.2 14.0 63 4.2 E 28 46 15 25 1009.0 - 0.0
10/06:30pm 21.5 16.8 13.2 59 4.8 E 30 46 16 25 1009.0 - 0.0
10/06:26pm 21.6 17.4 13.5 60 4.7 E 28 46 15 25 1009.0 - 0.0
10/06:00pm 22.7 18.6 12.8 53 5.7 E 26 37 14 20 1009.1 1009.1 0.0
10/05:30pm 23.7 20.3 13.6 53 5.9 E 24 32 13 17 1009.3 - 0.0
10/05:00pm 23.9 20.4 14.5 55 5.6 ESE 26 33 14 18 1009.5 - 0.0
10/04:30pm 24.1 20.4 14.9 56 5.5 ESE 28 39 15 21 1009.8 - 0.0
10/04:00pm 25.1 21.6 14.6 52 6.3 E 26 35 14 19 1010.3 - 0.0
10/03:30pm 25.2 20.8 13.0 46 7.1 ESE 28 37 15 20 1010.8 - 0.0
10/03:00pm 25.5 20.8 11.9 42 7.8 E 28 39 15 21 1011.1 1011.1 0.0
10/02:30pm 25.6 20.9 13.3 46 7.2 ESE 30 37 16 20 1011.3 - 0.0
10/02:00pm 26.0 21.8 14.7 49 6.8 ESE 30 39 16 21 1011.7 - 0.0
10/01:30pm 25.8 22.3 15.6 53 6.2 ESE 28 37 15 20 1012.2 - 0.0
10/01:00pm 25.9 22.2 15.9 54 6.1 ESE 30 39 16 21 1012.6 - 0.0
10/12:30pm 26.0 22.7 16.1 54 6.1 ESE 28 39 15 21 1013.2 - 0.0
10/12:00pm 25.9 23.4 16.1 54 6.0 ESE 24 35 13 19 1013.7 1013.6 0.0
10/11:30am 24.9 22.0 16.1 58 5.4 ESE 26 33 14 18 1014.3 - 0.0
10/11:00am 24.7 21.8 16.0 58 5.3 ESE 26 32 14 17 1014.7 - 0.0
10/10:30am 24.8 22.5 15.6 56 5.6 ESE 22 30 12 16 1015.1 - 0.0
10/10:00am 24.1 21.7 15.5 58 5.2 ESE 22 30 12 16 1015.5 - 0.0
10/09:30am 24.1 22.0 15.1 57 5.4 E 20 28 11 15 1015.9 - 0.0
10/09:00am 23.0 20.6 14.5 58 5.0 E 20 28 11 15 1016.3 1016.3 0.0
10/08:30am 22.3 20.0 14.1 59 4.8 E 19 30 10 16 1016.6 - 0.0
10/08:00am 21.0 18.8 14.5 66 3.8 E 19 24 10 13 1017.1 - 0.0
10/07:30am 19.6 17.1 14.1 70 3.2 E 20 26 11 14 1017.4 - 0.0
10/07:00am 18.4 16.8 15.0 80 2.0 E 17 24 9 13 1017.4 - 0.0
10/06:37am 17.4 15.9 15.2 87 1.3 E 17 24 9 13 1017.4 - 0.0
10/06:30am 17.2 16.0 15.1 87 1.2 E 15 20 8 11 1017.4 - 0.0
10/06:00am 15.7 14.9 15.2 97 0.3 ENE 13 19 7 10 1017.5 1017.5 0.0
10/05:44am 15.3 14.4 14.8 97 0.3 ENE 13 17 7 9 1017.5 - 0.0
10/05:30am 15.0 14.4 14.5 97 0.3 ENE 11 15 6 8 1017.5 - 0.0
10/05:16am 14.7 13.6 14.2 97 0.3 ENE 13 15 7 8 1017.4 - 0.0
10/05:10am 14.2 13.3 13.8 97 0.2 ENE 11 15 6 8 1017.4 - 0.0
10/05:00am 14.4 13.2 14.0 97 0.2 ENE 13 17 7 9 1017.3 - 0.0
10/04:56am 14.5 13.3 14.0 97 0.3 ENE 13 17 7 9 1017.2 - 0.0
10/04:30am 14.3 13.8 13.8 97 0.3 ESE 9 11 5 6 1017.2 - 0.0
10/04:18am 14.0 13.3 13.3 96 0.4 ESE 9 11 5 6 1017.0 - 0.0
10/04:00am 14.3 13.3 13.4 94 0.5 E 11 13 6 7 1017.0 - 0.0
10/03:49am 14.9 14.4 13.8 93 0.6 E 9 17 5 9 1016.9 - 0.0
10/03:30am 15.7 14.7 14.5 93 0.7 E 13 19 7 10 1016.9 - 0.0
10/03:00am 16.2 15.3 14.8 91 0.8 E 13 20 7 11 1017.2 1017.2 0.0
10/02:30am 16.2 14.9 14.8 91 0.8 E 15 20 8 11 1017.1 - 0.0
10/02:00am 16.0 15.1 14.8 93 0.7 E 13 17 7 9 1017.3 - 0.0
10/01:30am 15.1 14.7 14.2 94 0.5 E 9 13 5 7 1017.6 - 0.0
10/01:16am 15.0 14.6 14.1 94 0.5 ESE 9 13 5 7 1017.5 - 0.0
10/01:00am 15.6 14.6 14.5 93 0.6 ESE 13 15 7 8 1017.6 - 0.0
10/12:48am 15.7 14.7 14.7 94 0.6 E 13 15 7 8 1017.6 - 0.0
10/12:30am 15.8 14.9 14.8 94 0.6 ESE 13 17 7 9 1017.7 - 0.0
10/12:00am 16.1 14.8 14.9 93 0.7 ESE 15 19 8 10 1017.8 1017.8 0.0
 
Date/Time
WST
Temp
°C
App
Temp
°C
Dew
Point
°C
Rel
Hum
%
Delta-T
°C
Wind Press
QNH
hPa
Press
MSL
hPa
Rain since
9am
mm
Dir  Spd
km/h
Gust
km/h
Spd
kts
Gust
kts
09/11:30pm 16.4 15.5 14.8 90 0.9 SE 13 17 7 9 1018.0 - 0.0
09/11:00pm 16.7 15.5 15.1 90 0.9 ESE 15 19 8 10 1018.2 - 0.0
09/10:30pm 17.0 16.0 15.6 91 0.8 ESE 15 20 8 11 1018.5 - 0.0
09/10:00pm 16.5 15.8 15.5 94 0.6 ESE 13 17 7 9 1018.5 - 0.0
09/09:59pm 16.5 15.8 15.5 94 0.6 ESE 13 17 7 9 1018.5 - 0.0
09/09:30pm 16.0 15.1 14.8 93 0.7 ESE 13 15 7 8 1018.5 - 0.0
09/09:00pm 16.7 15.5 15.1 90 0.9 SSE 15 17 8 9 1018.3 1018.3 0.0
09/08:30pm 16.9 15.7 15.0 88 1.1 ESE 15 19 8 10 1017.6 - 0.0
09/08:00pm 17.2 16.0 15.0 87 1.3 SE 15 19 8 10 1017.4 - 0.0
09/07:30pm 18.0 17.6 15.1 83 1.7 SE 11 15 6 8 1017.1 - 0.0
09/07:00pm 20.1 19.9 14.6 70 3.2 S 9 13 5 7 1016.8 - 0.0
09/06:30pm 21.9 21.1 14.0 61 4.6 SE 11 13 6 7 1016.4 - 0.0
09/06:00pm 22.8 21.7 14.3 58 5.0 SSE 13 17 7 9 1016.1 1016.1 0.0
09/05:30pm 24.0 22.7 13.8 53 6.0 SE 13 17 7 9 1015.8 - 0.0
09/05:00pm 24.1 22.0 13.7 52 6.1 SE 17 20 9 11 1015.4 - 0.0
09/04:30pm 25.4 22.3 11.7 42 7.8 SE 19 26 10 14 1015.2 - 0.0
09/04:00pm 24.8 21.6 12.0 44 7.3 SE 20 26 11 14 1015.2 - 0.0
09/03:30pm 24.8 21.4 11.3 42 7.6 SE 20 28 11 15 1015.3 - 0.0
09/03:00pm 25.0 20.5 11.4 42 7.7 SE 26 33 14 18 1015.3 1015.3 0.0
09/02:30pm 24.9 20.8 11.3 42 7.7 SE 24 32 13 17 1015.3 - 0.0
09/02:00pm 25.7 21.9 12.4 43 7.7 SE 24 30 13 16 1015.2 - 0.0
09/01:30pm 25.5 21.5 11.9 42 7.8 SE 24 30 13 16 1015.2 - 0.0
09/01:00pm 27.2 23.9 11.5 37 9.0 SE 20 28 11 15 1015.4 - 0.0
09/12:30pm 27.3 23.7 10.4 34 9.5 SE 20 26 11 14 1015.6 - 0.0
09/12:00pm 27.4 23.9 10.1 33 9.7 SE 19 26 10 14 1015.9 1015.9 0.0
09/11:30am 28.7 26.4 7.3 26 11.5 SW 9 15 5 8 1016.3 - 0.0
09/11:00am 27.7 25.4 7.3 27 10.9 N 9 17 5 9 1016.6 - 0.0
09/10:30am 26.3 23.3 7.8 31 9.9 E 13 20 7 11 1016.9 - 0.0
09/10:00am 25.3 21.9 7.8 32 9.3 NE 15 24 8 13 1017.1 - 0.0
09/09:30am 23.5 20.2 8.2 37 8.1 NNE 15 20 8 11 1017.4 - 0.0
09/09:00am 21.5 17.8 8.1 42 7.0 NE 17 22 9 12 1017.8 1017.8 0.0
09/08:30am 20.3 17.7 9.2 49 5.9 ENE 13 20 7 11 1018.3 - 0.0
09/08:00am 17.6 14.5 8.9 56 4.5 ENE 15 19 8 10 1018.7 - 0.0
09/07:30am 16.5 13.9 9.2 62 3.8 ENE 13 19 7 10 1019.0 - 0.0
09/07:00am 15.0 11.5 8.9 67 3.1 ENE 17 22 9 12 1019.0 - 0.0
09/06:30am 13.5 10.0 8.9 74 2.3 NE 17 24 9 13 1019.2 - 0.0
09/06:00am 12.4 9.3 9.0 80 1.7 ENE 15 19 8 10 1019.2 1019.2 0.0
09/05:30am 11.4 8.0 9.0 85 1.2 NE 17 20 9 11 1019.1 - 0.0
09/05:00am 11.0 7.1 8.8 86 1.1 NE 19 26 10 14 1019.0 - 0.0
09/04:30am 10.9 7.1 8.9 87 1.0 NE 19 28 10 15 1018.8 - 0.0
09/04:00am 10.4 7.0 9.0 91 0.7 NE 17 20 9 11 1018.8 - 0.0
09/03:30am 10.6 7.9 9.0 90 0.8 ENE 13 17 7 9 1019.1 - 0.0
09/03:00am 10.9 7.5 9.3 90 0.8 ENE 17 20 9 11 1019.1 1019.1 0.0
09/02:30am 11.3 7.9 9.3 87 1.0 ENE 17 22 9 12 1019.1 - 0.0
09/02:00am 11.4 7.6 9.2 86 1.1 ENE 19 24 10 13 1019.1 - 0.0
09/01:30am 11.2 7.8 9.2 87 1.0 ENE 17 24 9 13 1019.3 - 0.0
09/01:00am 11.3 8.6 9.1 86 1.1 ENE 13 17 7 9 1019.6 - 0.0
09/12:30am 11.3 8.6 8.9 85 1.2 ENE 13 17 7 9 1019.6 - 0.0
09/12:00am 11.2 8.1 8.8 85 1.2 NE 15 20 8 11 1019.7 1019.7 0.0
 
Date/Time
WST
Temp
°C
App
Temp
°C
Dew
Point
°C
Rel
Hum
%
Delta-T
°C
Wind Press
QNH
hPa
Press
MSL
hPa
Rain since
9am
mm
Dir  Spd
km/h
Gust
km/h
Spd
kts
Gust
kts
08/11:30pm 11.3 8.2 8.9 85 1.2 ENE 15 20 8 11 1020.0 - 0.0
08/11:00pm 11.0 7.9 8.8 86 1.1 ENE 15 17 8 9 1020.5 - 0.0
08/10:30pm 11.7 8.9 8.7 82 1.5 E 13 17 7 9 1020.8 - 0.0
08/10:00pm 11.8 9.1 8.8 82 1.5 ENE 13 15 7 8 1021.2 - 0.0
08/09:30pm 12.6 9.9 8.8 77 1.9 E 13 15 7 8 1021.4 - 0.0
08/09:00pm 12.9 10.2 8.9 76 2.0 E 13 17 7 9 1021.4 1021.4 0.0
08/08:30pm 13.2 9.8 9.0 75 2.1 E 17 20 9 11 1021.4 - 0.0
08/08:00pm 14.0 10.6 9.3 73 2.4 E 17 26 9 14 1021.4 - 0.0
08/07:30pm 14.5 10.5 9.2 70 2.7 E 20 30 11 16 1021.2 - 0.0
08/07:00pm 15.3 10.5 9.0 66 3.2 ESE 24 30 13 16 1020.9 - 0.0
08/06:30pm 16.2 11.0 8.8 61 3.8 E 26 37 14 20 1020.6 - 0.0
08/06:00pm 16.9 12.0 8.5 57 4.3 E 24 33 13 18 1020.5 1020.5 0.0
08/05:30pm 17.7 12.7 8.1 53 4.9 E 24 33 13 18 1020.2 - 0.0
08/05:00pm 18.2 12.9 8.3 52 5.1 E 26 35 14 19 1020.2 - 0.0
08/04:30pm 18.5 12.6 7.7 49 5.5 ESE 28 35 15 19 1020.3 - 0.0
08/04:00pm 18.9 13.4 7.7 48 5.7 ESE 26 35 14 19 1020.2 - 0.0
08/03:30pm 19.5 13.6 7.6 46 6.1 ESE 28 37 15 20 1020.4 - 0.0
08/03:00pm 19.2 13.7 7.6 47 5.9 ESE 26 35 14 19 1020.5 1020.5 0.0
08/02:30pm 19.4 13.4 7.2 45 6.2 SE 28 37 15 20 1020.6 - 0.0
08/02:00pm 19.9 14.4 7.4 44 6.4 SE 26 35 14 19 1020.8 - 0.0
08/01:30pm 19.4 14.2 7.2 45 6.2 ESE 24 32 13 17 1021.1 - 0.0
08/01:00pm 19.7 14.5 7.1 44 6.4 ESE 24 33 13 18 1021.2 - 0.0
08/12:30pm 20.4 16.0 7.3 42 6.7 ESE 20 28 11 15 1021.3 - 0.0
08/12:00pm 20.0 15.7 7.0 43 6.6 ESE 19 30 10 16 1021.7 1021.7 0.0
08/11:30am 19.6 16.1 7.2 44 6.3 ESE 15 26 8 14 1022.0 - 0.0
08/11:00am 18.8 14.3 6.8 45 6.0 ESE 20 26 11 14 1022.3 - 0.0
08/10:30am 19.7 15.7 6.8 43 6.5 E 17 24 9 13 1022.4 - 0.0
08/10:00am 18.6 16.2 6.8 46 5.9 NE 9 24 5 13 1022.5 - 0.0
08/09:30am 17.6 14.3 6.4 47 5.5 SSE 13 20 7 11 1022.7 - 0.0
08/09:00am 17.3 13.9 5.8 46 5.6 ESE 13 19 7 10 1022.8 1022.8 0.0
08/08:30am 17.4 15.2 6.4 48 5.4 S 7 19 4 10 1023.0 - 0.0
08/08:00am 15.7 13.1 6.2 53 4.6 S 9 15 5 8 1023.0 - 0.0
08/07:30am 15.3 12.3 6.2 54 4.4 ENE 11 20 6 11 1022.8 - 0.0
08/07:00am 14.9 13.2 7.4 61 3.7 S 6 7 3 4 1022.8 - 0.0
08/06:30am 14.1 12.2 7.4 64 3.3 WNW 7 11 4 6 1022.8 - 0.0
08/06:00am 13.4 11.8 8.6 73 2.4 WNW 7 9 4 5 1022.5 1022.5 0.0
08/05:30am 13.2 12.6 7.5 68 2.8 CALM 0 7 0 4 1021.9 - 0.0
08/05:00am 12.8 12.4 8.1 73 2.3 CALM 0 0 0 0 1021.7 - 0.0
08/04:30am 12.7 12.1 7.6 71 2.5 CALM 0 0 0 0 1021.4 - 0.0
08/04:00am 12.4 10.8 7.9 74 2.2 NNE 6 7 3 4 1021.3 - 0.0
08/03:30am 13.3 11.6 7.4 67 2.9 SE 6 7 3 4 1021.2 - 0.0
08/03:00am 13.3 11.5 7.1 66 3.0 SSE 6 11 3 6 1021.1 1021.1 0.0
08/02:30am 13.6 11.4 6.3 61 3.5 SSE 7 11 4 6 1021.1 - 0.0
08/02:00am 13.2 11.0 6.3 63 3.3 SSE 7 9 4 5 1021.2 - 0.0
08/01:30am 13.0 11.0 7.0 67 2.9 SW 7 11 4 6 1021.6 - 0.0
08/01:00am 13.1 11.1 7.1 67 2.9 SSW 7 11 4 6 1021.9 - 0.0
08/12:30am 13.2 12.5 6.8 65 3.1 CALM 0 0 0 0 1021.8 - 0.0
08/12:00am 13.1 11.7 7.1 67 2.9 SSW 4 7 2 4 1022.0 1022.0 0.0
 
Date/Time
WST
Temp
°C
App
Temp
°C
Dew
Point
°C
Rel
Hum
%
Delta-T
°C
Wind Press
QNH
hPa
Press
MSL
hPa
Rain since
9am
mm
Dir  Spd
km/h
Gust
km/h
Spd
kts
Gust
kts
07/11:30pm 13.1 10.5 5.9 61 3.4 S 9 11 5 6 1022.1 - 0.0
07/11:00pm 13.1 10.9 6.4 64 3.2 S 7 11 4 6 1022.3 - 0.0

Other Formats:

Comma delimited format used in spreadsheet applications
http://www.bom.gov.au/fwo/IDW60801/IDW60801.94802.axf

JavaScript Object Notation format (JSON) in row-major order
http://www.bom.gov.au/fwo/IDW60801/IDW60801.94802.json